Terminal Aerodrome Forecast
Issued by NWS

Home | Current Version | Previous Version | Text Only | Print | Product List | Glossary On
Versions: 1 2 3 4 5 6 7 8 9 10 11 12
000
FTUS42 KTBW 252300
TAFLAL
TAF
KLAL 252340Z 2600/2624 36004KT P6SM SKC
     FM260200 00000KT P6SM SKC
     FM261300 02005KT P6SM SKC
      AMD NOT SKED 2603/2612=

USA.gov is the U.S. government's official web portal to all federal, state and local government web resources and services.